Time;durP1;ratioP1;P1;durP2;ratioP2;P2;SDS_P1;SDS_P2;PMS_P1;PMS_P2;Temp;Humidity;BMP_temperature;BMP_pressure;BME280_temperature;BME280_humidity;BME280_pressure;Samples;Min_cycle;Max_cycle;Signal;HPM_P1;HPM_P2
2022/12/25 00:01:06;;;;;;;7.10;4.37;;;7.60;99.90;;;;;;6122193;23;20451;-54
2022/12/25 00:03:34;;;;;;;13.30;4.13;;;7.60;99.90;;;;;;6122380;23;20400;-54
2022/12/25 00:06:01;;;;;;;7.30;3.90;;;7.60;99.90;;;;;;6121332;23;20416;-63
2022/12/25 00:08:34;;;;;;;13.37;5.50;;;7.50;99.90;;;;;;6121056;23;20399;-55
2022/12/25 00:11:03;;;;;;;16.00;5.67;;;7.50;99.90;;;;;;6122463;23;20490;-56
2022/12/25 00:13:31;;;;;;;8.90;4.07;;;7.50;99.90;;;;;;6121564;23;20376;-58
2022/12/25 00:15:58;;;;;;;8.30;4.80;;;7.50;99.90;;;;;;6120971;23;20411;-57
2022/12/25 00:18:28;;;;;;;18.93;5.80;;;7.50;99.90;;;;;;6114209;23;20454;-57
2022/12/25 00:20:59;;;;;;;12.10;5.97;;;7.40;99.90;;;;;;6120835;23;20435;-58
2022/12/25 00:23:27;;;;;;;7.60;4.50;;;7.40;99.90;;;;;;6120951;23;20428;-55
2022/12/25 00:25:55;;;;;;;13.57;4.70;;;7.40;99.90;;;;;;6121135;23;20416;-56
2022/12/25 00:28:23;;;;;;;9.80;3.90;;;7.40;99.90;;;;;;6121323;23;20415;-59
2022/12/25 00:30:53;;;;;;;12.83;4.33;;;7.40;99.90;;;;;;6121082;23;20407;-56
2022/12/25 00:33:24;;;;;;;9.40;5.17;;;7.40;99.90;;;;;;6120880;23;20716;-54
2022/12/25 00:35:57;;;;;;;6.50;4.40;;;7.40;99.90;;;;;;6121092;23;20436;-58
2022/12/25 00:38:24;;;;;;;15.10;6.10;;;7.30;99.90;;;;;;6120842;23;20432;-57
2022/12/25 00:40:52;;;;;;;9.63;5.93;;;7.30;99.90;;;;;;6120508;23;20436;-56
2022/12/25 00:43:20;;;;;;;14.07;6.67;;;7.30;99.90;;;;;;6121106;23;20412;-57
2022/12/25 00:45:55;;;;;;;9.23;4.53;;;7.30;99.90;;;;;;6113756;23;20392;-60
2022/12/25 00:48:22;;;;;;;8.63;4.37;;;7.30;99.90;;;;;;6121713;23;20411;-56
2022/12/25 00:50:55;;;;;;;14.27;4.77;;;7.20;99.90;;;;;;6121744;23;20410;-56
2022/12/25 00:53:22;;;;;;;8.20;5.30;;;7.40;99.90;;;;;;6121217;23;20446;-58
2022/12/25 00:55:53;;;;;;;9.03;4.43;;;7.20;99.90;;;;;;6121366;23;20407;-57
2022/12/25 00:58:21;;;;;;;9.83;4.80;;;7.10;99.90;;;;;;6121601;23;20416;-58
2022/12/25 01:00:49;;;;;;;7.47;5.00;;;7.10;99.90;;;;;;6121331;23;20404;-57
2022/12/25 01:03:16;;;;;;;8.10;3.80;;;7.10;99.90;;;;;;6121212;23;20404;-56
2022/12/25 01:05:44;;;;;;;8.47;4.87;;;7.10;99.90;;;;;;6121115;23;20388;-58
2022/12/25 01:08:11;;;;;;;17.63;5.20;;;7.10;99.90;;;;;;6120614;23;20419;-55
2022/12/25 01:10:37;;;;;;;13.17;5.80;;;7.10;99.90;;;;;;6109011;23;20440;-59
2022/12/25 01:13:04;;;;;;;18.63;5.47;;;7.00;99.90;;;;;;6121537;23;20391;-56
2022/12/25 01:15:34;;;;;;;10.00;5.00;;;7.00;99.90;;;;;;6121820;23;20431;-60
2022/12/25 01:18:01;;;;;;;11.60;4.30;;;6.90;99.90;;;;;;6120740;23;20430;-57
2022/12/25 01:20:28;;;;;;;14.83;5.07;;;6.90;99.90;;;;;;6120809;23;20443;-57
2022/12/25 01:22:58;;;;;;;7.20;5.03;;;6.90;99.90;;;;;;6120738;23;20418;-57
2022/12/25 01:25:25;;;;;;;17.90;5.33;;;6.90;99.90;;;;;;6121434;23;20399;-58
2022/12/25 01:27:54;;;;;;;9.87;6.00;;;6.90;99.90;;;;;;6121704;23;20443;-60
2022/12/25 01:30:20;;;;;;;6.53;4.77;;;6.90;99.90;;;;;;6122235;23;20400;-58
2022/12/25 01:32:49;;;;;;;10.40;4.90;;;6.90;99.90;;;;;;6121267;23;20416;-57
2022/12/25 01:35:16;;;;;;;8.53;5.50;;;6.90;99.90;;;;;;6121061;23;20435;-57
2022/12/25 01:37:43;;;;;;;9.10;4.70;;;6.80;99.90;;;;;;6120529;23;20411;-57
2022/12/25 01:40:12;;;;;;;14.10;4.17;;;6.80;99.90;;;;;;6120731;23;20439;-56
2022/12/25 01:42:39;;;;;;;12.90;5.03;;;6.80;99.90;;;;;;6120661;23;20428;-58
2022/12/25 01:45:31;;;;;;;9.60;3.33;;;6.80;99.90;;;;;;6120772;23;20427;-59
2022/12/25 01:48:02;;;;;;;6.20;4.53;;;6.70;99.90;;;;;;6120817;23;20379;-58
2022/12/25 01:50:38;;;;;;;12.23;5.43;;;6.70;99.90;;;;;;6114097;23;20427;-58
2022/12/25 01:53:05;;;;;;;11.33;5.70;;;6.70;99.90;;;;;;6121529;23;20367;-58
2022/12/25 01:55:34;;;;;;;8.40;5.17;;;6.70;99.90;;;;;;6121304;23;20412;-58
2022/12/25 01:58:01;;;;;;;13.73;6.10;;;6.60;99.90;;;;;;6120957;23;20401;-65
2022/12/25 02:00:28;;;;;;;12.93;6.23;;;6.60;99.90;;;;;;6121702;23;20444;-57
2022/12/25 02:03:05;;;;;;;14.93;5.17;;;6.60;99.90;;;;;;6122169;23;20391;-59
2022/12/25 02:05:35;;;;;;;9.40;4.70;;;6.60;99.90;;;;;;6121200;23;20402;-57
2022/12/25 02:08:06;;;;;;;10.60;4.70;;;6.60;99.90;;;;;;6120521;23;20415;-59
2022/12/25 02:10:33;;;;;;;5.80;3.60;;;6.50;99.90;;;;;;6120899;23;20391;-57
2022/12/25 02:13:01;;;;;;;14.13;5.00;;;6.50;99.90;;;;;;6121193;23;20431;-57
2022/12/25 02:15:35;;;;;;;11.20;4.90;;;6.50;99.90;;;;;;6120885;23;20441;-58
2022/12/25 02:18:10;;;;;;;10.00;5.27;;;6.50;99.90;;;;;;6121180;23;20399;-62
2022/12/25 02:21:17;;;;;;;12.70;4.60;;;6.50;99.90;;;;;;6120512;23;20427;-58
2022/12/25 02:24:13;;;;;;;7.60;5.30;;;6.40;99.90;;;;;;6121121;23;20384;-54
2022/12/25 02:27:00;;;;;;;9.50;5.40;;;6.40;99.90;;;;;;6120899;23;20384;-54
2022/12/25 02:29:35;;;;;;;5.93;4.50;;;6.40;99.90;;;;;;6102077;23;20410;-56
2022/12/25 02:32:09;;;;;;;15.33;5.17;;;6.40;99.90;;;;;;6121414;23;20392;-59
2022/12/25 02:34:42;;;;;;;6.70;3.33;;;6.40;99.90;;;;;;6121551;23;20464;-58
2022/12/25 02:37:14;;;;;;;10.73;4.87;;;6.40;99.90;;;;;;6121522;23;20384;-60
2022/12/25 02:39:58;;;;;;;7.43;4.57;;;6.40;99.90;;;;;;6121733;23;20431;-62
2022/12/25 03:07:29;;;;;;;8.33;3.80;;;6.20;99.90;;;;;;6122878;23;20392;-57
2022/12/25 03:12:53;;;;;;;12.53;3.90;;;6.10;99.90;;;;;;6122854;23;20383;-59
2022/12/25 03:18:14;;;;;;;5.73;4.40;;;6.00;99.90;;;;;;6122360;23;20394;-60
2022/12/25 03:29:06;;;;;;;5.77;4.10;;;5.90;99.90;;;;;;6122870;23;20438;-56
2022/12/25 03:31:42;;;;;;;8.60;4.33;;;5.90;99.90;;;;;;6122212;23;20414;-56
2022/12/25 04:36:11;;;;;;;8.43;4.40;;;5.60;99.90;;;;;;6120150;23;20425;-52
2022/12/25 04:38:39;;;;;;;7.93;5.20;;;5.60;99.90;;;;;;6120199;23;20399;-56
2022/12/25 04:41:08;;;;;;;8.53;3.70;;;5.50;99.90;;;;;;6120236;23;20522;-55
2022/12/25 04:43:35;;;;;;;9.70;4.70;;;5.50;99.90;;;;;;6119833;23;20431;-55
2022/12/25 04:46:04;;;;;;;8.47;4.90;;;5.60;99.90;;;;;;6114831;23;20435;-54
2022/12/25 04:48:32;;;;;;;11.03;5.27;;;5.60;99.90;;;;;;6120486;23;20451;-54
2022/12/25 04:51:09;;;;;;;7.97;4.10;;;5.60;99.90;;;;;;6112071;23;20399;-55
2022/12/25 04:53:35;;;;;;;5.93;3.67;;;5.60;99.90;;;;;;6121974;23;20376;-52
2022/12/25 04:56:05;;;;;;;12.60;5.23;;;5.60;99.90;;;;;;6120275;23;20451;-52
2022/12/25 04:58:34;;;;;;;11.33;4.87;;;5.60;99.90;;;;;;6122708;23;20407;-50
2022/12/25 05:01:02;;;;;;;17.33;5.03;;;5.60;99.90;;;;;;6121256;23;20466;-53
2022/12/25 05:03:29;;;;;;;11.47;4.47;;;5.60;99.90;;;;;;6117273;23;20438;-57
2022/12/25 05:05:56;;;;;;;10.60;5.07;;;5.60;99.90;;;;;;6114659;23;20463;-52
2022/12/25 05:08:23;;;;;;;9.93;4.53;;;5.60;99.90;;;;;;6120750;23;20411;-53
2022/12/25 05:10:50;;;;;;;17.03;3.73;;;5.60;99.90;;;;;;6120065;23;20404;-55
2022/12/25 05:13:17;;;;;;;9.03;4.50;;;5.60;99.90;;;;;;6120232;23;20431;-56
2022/12/25 05:15:46;;;;;;;12.70;4.50;;;5.60;99.90;;;;;;6120933;23;20443;-59
2022/12/25 05:18:12;;;;;;;13.80;4.90;;;5.60;99.90;;;;;;6121518;23;20423;-52
2022/12/25 05:20:43;;;;;;;10.60;5.17;;;5.60;99.90;;;;;;6121864;23;20435;-55
2022/12/25 05:23:11;;;;;;;12.30;5.63;;;5.60;99.90;;;;;;6121699;23;20833;-55
2022/12/25 05:25:41;;;;;;;21.30;4.90;;;5.60;99.90;;;;;;6121511;23;20442;-53
2022/12/25 05:28:10;;;;;;;7.87;5.03;;;5.60;99.90;;;;;;6121964;23;20432;-60
2022/12/25 05:30:37;;;;;;;12.17;4.50;;;5.60;99.90;;;;;;6121101;23;20518;-53
2022/12/25 05:33:07;;;;;;;19.63;6.23;;;5.60;99.90;;;;;;6121608;23;20384;-54
2022/12/25 05:35:36;;;;;;;8.30;4.37;;;5.60;99.90;;;;;;6120717;23;20432;-53
2022/12/25 05:38:03;;;;;;;15.57;4.77;;;5.60;99.90;;;;;;6120641;23;20403;-55
2022/12/25 05:40:33;;;;;;;6.17;4.50;;;5.60;99.90;;;;;;6120414;23;20455;-57
2022/12/25 05:43:00;;;;;;;12.50;6.20;;;5.50;99.90;;;;;;6119926;23;20403;-54
2022/12/25 05:45:30;;;;;;;10.43;5.40;;;5.50;99.90;;;;;;6120460;23;20399;-56
2022/12/25 05:47:57;;;;;;;7.87;5.67;;;4.80;99.90;;;;;;6121238;23;20384;-57
2022/12/25 05:50:28;;;;;;;9.57;4.40;;;5.50;99.90;;;;;;6120768;23;20396;-55
2022/12/25 05:52:57;;;;;;;8.93;5.40;;;5.50;99.90;;;;;;6121059;23;20418;-55
2022/12/25 05:55:26;;;;;;;9.43;4.90;;;5.40;99.90;;;;;;6112580;23;20411;-53
2022/12/25 05:57:53;;;;;;;13.00;4.57;;;5.50;99.90;;;;;;6119986;23;20435;-55
2022/12/25 06:00:20;;;;;;;7.73;4.17;;;5.40;99.90;;;;;;6119717;23;20454;-52
2022/12/25 06:02:50;;;;;;;18.33;4.07;;;5.40;99.90;;;;;;6119219;23;20411;-54
2022/12/25 06:05:17;;;;;;;10.23;4.70;;;5.40;99.90;;;;;;6120044;23;20364;-55
2022/12/25 06:07:45;;;;;;;12.60;6.17;;;5.40;99.90;;;;;;6122229;23;20400;-55
2022/12/25 06:10:12;;;;;;;27.47;6.73;;;5.40;99.90;;;;;;6121632;23;20435;-56
2022/12/25 06:12:39;;;;;;;14.53;5.90;;;5.40;99.90;;;;;;6113039;23;20411;-55
2022/12/25 06:15:07;;;;;;;9.27;5.33;;;5.30;99.90;;;;;;6121530;23;20499;-53
2022/12/25 06:17:34;;;;;;;12.83;5.63;;;5.30;99.90;;;;;;6120240;23;20447;-52
2022/12/25 06:20:04;;;;;;;5.83;4.77;;;5.30;99.90;;;;;;6111296;23;20439;-55
2022/12/25 06:22:33;;;;;;;19.07;5.40;;;5.30;99.90;;;;;;6118620;23;20388;-56
2022/12/25 06:25:01;;;;;;;9.20;5.40;;;5.30;99.90;;;;;;6121419;23;20395;-54
2022/12/25 06:27:28;;;;;;;10.37;5.53;;;5.30;99.90;;;;;;6122084;23;20427;-52
2022/12/25 06:29:55;;;;;;;16.07;6.80;;;5.30;99.90;;;;;;6122261;23;20395;-57
2022/12/25 06:32:25;;;;;;;12.80;6.23;;;5.30;99.90;;;;;;6121654;23;20428;-53
2022/12/25 06:34:52;;;;;;;15.70;5.47;;;5.20;99.90;;;;;;6122304;23;20407;-55
2022/12/25 06:37:19;;;;;;;13.90;3.87;;;5.20;99.90;;;;;;6122990;23;20430;-56
2022/12/25 06:39:47;;;;;;;8.77;4.87;;;5.20;99.90;;;;;;6123119;23;20410;-55
2022/12/25 06:42:15;;;;;;;7.10;4.17;;;5.20;99.90;;;;;;6123202;23;20399;-55
2022/12/25 06:44:42;;;;;;;11.33;5.20;;;5.20;99.90;;;;;;6121203;23;20422;-53
2022/12/25 06:47:09;;;;;;;25.60;5.80;;;5.20;99.90;;;;;;6122399;23;20414;-56
2022/12/25 06:49:37;;;;;;;10.23;5.23;;;5.20;99.90;;;;;;6121734;23;20427;-55
2022/12/25 06:52:04;;;;;;;7.70;4.93;;;5.20;99.90;;;;;;6116044;23;20408;-57
2022/12/25 06:54:31;;;;;;;7.77;4.40;;;5.20;99.90;;;;;;6119400;23;20505;-57
2022/12/25 06:57:02;;;;;;;9.30;4.40;;;5.10;99.90;;;;;;6122260;23;20399;-50
2022/12/25 06:59:30;;;;;;;9.40;5.07;;;5.10;99.90;;;;;;6119927;23;20409;-57
2022/12/25 07:01:58;;;;;;;9.53;5.00;;;5.10;99.90;;;;;;6110018;23;21070;-57
2022/12/25 07:04:31;;;;;;;7.50;4.90;;;5.00;99.90;;;;;;6121645;23;20446;-56
2022/12/25 07:06:59;;;;;;;8.30;4.97;;;4.90;99.90;;;;;;6123272;23;20492;-55
2022/12/25 07:09:26;;;;;;;7.60;4.43;;;4.80;99.90;;;;;;6120900;23;20403;-56
2022/12/25 07:11:53;;;;;;;8.07;4.97;;;4.80;99.90;;;;;;6120428;23;20427;-58
2022/12/25 07:14:22;;;;;;;10.43;4.07;;;4.70;99.90;;;;;;6115203;23;20399;-63
2022/12/25 07:16:50;;;;;;;13.10;4.80;;;4.80;99.90;;;;;;6124946;23;20391;-58
2022/12/25 07:19:18;;;;;;;14.23;5.70;;;4.80;99.90;;;;;;6122891;23;20724;-58
2022/12/25 07:21:45;;;;;;;6.87;3.70;;;4.80;99.90;;;;;;6122041;23;20438;-58
2022/12/25 07:24:11;;;;;;;8.90;3.90;;;4.80;99.90;;;;;;6121889;23;20446;-57
2022/12/25 07:26:41;;;;;;;5.80;3.73;;;4.70;99.90;;;;;;6121484;23;20403;-56
2022/12/25 07:29:08;;;;;;;11.50;5.07;;;4.60;99.90;;;;;;6122219;23;20396;-56
2022/12/25 07:31:52;;;;;;;6.60;3.30;;;4.70;99.90;;;;;;6122055;23;20410;-57
2022/12/25 07:34:19;;;;;;;8.70;4.40;;;4.60;99.90;;;;;;6121362;23;20403;-55
2022/12/25 07:36:46;;;;;;;4.63;3.33;;;4.60;99.90;;;;;;6121237;23;20427;-57
2022/12/25 07:39:13;;;;;;;5.37;3.23;;;4.50;99.90;;;;;;6121590;23;20447;-56
2022/12/25 07:41:40;;;;;;;4.53;3.60;;;4.50;99.90;;;;;;6120781;23;20456;-57
2022/12/25 07:44:08;;;;;;;4.50;2.77;;;4.50;99.90;;;;;;6119441;23;20439;-56
2022/12/25 07:46:34;;;;;;;5.10;4.20;;;4.40;99.90;;;;;;6115967;23;20407;-52
2022/12/25 07:49:03;;;;;;;4.93;2.77;;;4.50;99.90;;;;;;6121312;23;20396;-54
2022/12/25 07:51:30;;;;;;;8.30;4.07;;;4.50;99.90;;;;;;6122441;23;20392;-57
2022/12/25 07:53:57;;;;;;;7.70;4.70;;;4.40;99.90;;;;;;6121392;23;20953;-56
2022/12/25 07:56:24;;;;;;;8.47;5.20;;;4.50;99.90;;;;;;6121615;23;20407;-56
2022/12/25 07:58:51;;;;;;;8.27;5.40;;;4.50;99.90;;;;;;6121589;23;20436;-54
2022/12/25 08:01:20;;;;;;;11.47;5.43;;;4.50;99.90;;;;;;6121509;23;20439;-53
2022/12/25 08:03:50;;;;;;;6.60;3.90;;;4.60;99.90;;;;;;6122908;23;20396;-53
2022/12/25 08:06:19;;;;;;;6.10;3.80;;;4.60;99.90;;;;;;6122565;23;20667;-62
2022/12/25 08:08:46;;;;;;;9.73;4.17;;;4.60;99.90;;;;;;6122087;23;20408;-59
2022/12/25 08:11:13;;;;;;;10.97;5.80;;;4.60;99.90;;;;;;6121895;23;20415;-57
2022/12/25 08:13:41;;;;;;;10.03;4.70;;;4.50;99.90;;;;;;6121869;23;20403;-56
2022/12/25 08:16:10;;;;;;;10.60;4.60;;;4.60;99.90;;;;;;6120665;23;20849;-53
2022/12/25 08:18:37;;;;;;;16.00;4.67;;;4.60;99.90;;;;;;6121168;23;20391;-58
2022/12/25 08:21:06;;;;;;;10.70;4.67;;;4.70;99.90;;;;;;6122330;23;20433;-52
2022/12/25 08:23:38;;;;;;;12.03;5.97;;;4.70;99.90;;;;;;6122069;23;20404;-52
2022/12/25 08:26:07;;;;;;;10.87;4.47;;;4.80;99.90;;;;;;6122634;23;20388;-49
2022/12/25 08:28:35;;;;;;;7.87;4.27;;;4.90;99.90;;;;;;6123121;23;20507;-56
2022/12/25 08:31:07;;;;;;;12.03;4.30;;;4.90;99.90;;;;;;6123774;23;20403;-51
2022/12/25 08:33:35;;;;;;;6.20;4.10;;;5.00;99.90;;;;;;6122489;23;20443;-51
2022/12/25 08:36:04;;;;;;;8.13;4.30;;;5.10;99.90;;;;;;6123004;23;20407;-50
2022/12/25 08:38:31;;;;;;;6.70;4.20;;;5.20;99.90;;;;;;6123300;23;20415;-53
2022/12/25 08:41:02;;;;;;;6.97;4.63;;;5.20;99.90;;;;;;6122602;23;20435;-56
2022/12/25 08:43:29;;;;;;;10.27;5.83;;;5.30;99.90;;;;;;6123522;23;20375;-58
2022/12/25 08:45:56;;;;;;;15.40;4.33;;;5.30;99.90;;;;;;6123317;23;20419;-53
2022/12/25 08:48:23;;;;;;;10.20;4.50;;;5.40;99.90;;;;;;6123467;23;20392;-55
2022/12/25 08:50:51;;;;;;;9.53;3.90;;;5.40;99.90;;;;;;6123947;23;20419;-51
2022/12/25 08:53:19;;;;;;;8.33;5.00;;;5.40;99.90;;;;;;6124321;23;20375;-51
2022/12/25 08:55:46;;;;;;;7.53;4.37;;;5.40;99.90;;;;;;6124800;23;20392;-51
2022/12/25 08:58:15;;;;;;;7.93;4.10;;;5.50;99.90;;;;;;6123963;23;20440;-59
2022/12/25 09:00:42;;;;;;;11.17;4.90;;;5.60;99.90;;;;;;6123741;23;20512;-55
2022/12/25 09:03:09;;;;;;;9.80;5.13;;;5.70;99.90;;;;;;6123413;23;20463;-52
2022/12/25 09:05:36;;;;;;;7.03;4.90;;;5.70;99.90;;;;;;6123127;23;20400;-57
2022/12/25 09:08:04;;;;;;;4.97;3.50;;;5.80;99.90;;;;;;6121194;23;20380;-55
2022/12/25 09:10:31;;;;;;;9.17;5.30;;;5.80;99.90;;;;;;6121614;23;20411;-57
2022/12/25 09:12:58;;;;;;;7.63;5.07;;;5.80;99.90;;;;;;6121310;23;20870;-60
2022/12/25 09:15:28;;;;;;;8.97;4.43;;;5.80;99.90;;;;;;6121304;23;20427;-55
2022/12/25 09:17:55;;;;;;;9.27;3.70;;;5.80;99.90;;;;;;6111444;23;20818;-56
2022/12/25 09:20:24;;;;;;;9.87;5.03;;;5.80;99.90;;;;;;6120234;23;20419;-57
2022/12/25 09:22:51;;;;;;;8.50;6.13;;;5.70;99.90;;;;;;6113294;23;20502;-56
2022/12/25 09:25:18;;;;;;;13.20;5.40;;;5.70;99.90;;;;;;6120798;23;20404;-57
2022/12/25 09:27:45;;;;;;;8.67;5.10;;;5.80;99.90;;;;;;6122295;23;20431;-56
2022/12/25 09:30:12;;;;;;;11.60;5.90;;;5.80;99.90;;;;;;6121969;23;20392;-49
2022/12/25 09:32:41;;;;;;;11.63;4.30;;;5.80;99.90;;;;;;6121980;23;20404;-49
2022/12/25 09:35:09;;;;;;;8.87;5.17;;;5.70;99.90;;;;;;6121375;23;20412;-54
2022/12/25 09:37:36;;;;;;;12.10;5.40;;;5.70;99.90;;;;;;6120913;23;20415;-55
2022/12/25 09:40:03;;;;;;;7.03;4.97;;;5.80;99.90;;;;;;6119999;23;20431;-57
2022/12/25 09:42:33;;;;;;;9.33;4.73;;;5.80;99.90;;;;;;6119728;23;20434;-62
2022/12/25 09:45:04;;;;;;;9.40;4.53;;;5.80;99.90;;;;;;6119941;23;20403;-56
2022/12/25 09:47:33;;;;;;;9.00;4.07;;;5.80;99.90;;;;;;6120488;23;20388;-54
2022/12/25 09:50:07;;;;;;;8.60;4.97;;;5.80;99.90;;;;;;6120923;23;20389;-56
2022/12/25 09:52:42;;;;;;;6.80;5.10;;;5.80;99.90;;;;;;6119969;23;20631;-56
2022/12/25 09:55:14;;;;;;;7.80;5.30;;;5.70;99.90;;;;;;6120487;23;20403;-55
2022/12/25 09:57:41;;;;;;;13.50;5.83;;;5.80;99.90;;;;;;6120076;23;20392;-53
2022/12/25 10:00:15;;;;;;;12.37;6.67;;;5.80;99.90;;;;;;6119944;23;20859;-54
2022/12/25 10:02:55;;;;;;;7.20;4.20;;;5.80;99.90;;;;;;6119903;23;20440;-58
2022/12/25 10:05:44;;;;;;;12.40;6.80;;;5.80;99.90;;;;;;6120145;23;20419;-61
2022/12/25 10:08:21;;;;;;;10.30;5.87;;;5.70;99.90;;;;;;6121020;23;20396;-57
2022/12/25 10:11:05;;;;;;;18.90;7.50;;;5.80;99.90;;;;;;6120373;23;20435;-54
2022/12/25 10:13:58;;;;;;;9.23;5.10;;;5.80;99.90;;;;;;6112902;23;20391;-59
2022/12/25 10:16:33;;;;;;;13.83;5.73;;;5.80;99.90;;;;;;6120969;23;20428;-59
2022/12/25 10:19:11;;;;;;;10.47;5.60;;;5.90;99.90;;;;;;6120634;23;20398;-57
2022/12/25 10:21:43;;;;;;;11.57;6.77;;;5.80;99.90;;;;;;6120161;23;20443;-58
2022/12/25 10:24:20;;;;;;;9.73;5.63;;;5.80;99.90;;;;;;6120329;23;20392;-61
2022/12/25 10:26:51;;;;;;;13.37;6.40;;;5.80;99.90;;;;;;6120502;23;20463;-58
2022/12/25 10:29:19;;;;;;;13.73;6.50;;;5.80;99.90;;;;;;6120937;23;20428;-58
2022/12/25 10:31:53;;;;;;;11.93;6.43;;;5.80;99.90;;;;;;6120440;23;20399;-57
2022/12/25 10:34:21;;;;;;;12.63;8.00;;;5.80;99.90;;;;;;6120835;23;20423;-58
2022/12/25 10:36:50;;;;;;;10.77;6.20;;;5.80;99.90;;;;;;6120438;23;20443;-58
2022/12/25 10:39:19;;;;;;;19.83;7.50;;;5.80;99.90;;;;;;6120554;23;20407;-55
2022/12/25 10:42:03;;;;;;;11.80;6.63;;;5.80;99.90;;;;;;6120859;23;20479;-55
2022/12/25 10:44:31;;;;;;;17.43;8.10;;;5.80;99.90;;;;;;6121026;23;20403;-56
2022/12/25 10:47:00;;;;;;;10.97;6.33;;;5.70;99.90;;;;;;6119608;23;20454;-57
2022/12/25 10:49:32;;;;;;;12.67;7.77;;;5.70;99.90;;;;;;6120605;23;20422;-57
2022/12/25 10:52:01;;;;;;;13.60;7.37;;;5.80;99.90;;;;;;6119515;23;20427;-59
2022/12/25 10:54:30;;;;;;;15.30;7.97;;;5.80;99.90;;;;;;6120451;23;20411;-56
2022/12/25 10:56:59;;;;;;;14.17;6.20;;;5.80;99.90;;;;;;6120597;23;20415;-56
2022/12/25 10:59:27;;;;;;;15.27;7.23;;;5.90;99.90;;;;;;6120525;23;20410;-56
2022/12/25 11:01:55;;;;;;;11.80;6.20;;;5.90;99.90;;;;;;6122023;23;20435;-57
2022/12/25 11:04:25;;;;;;;13.60;8.00;;;6.00;99.90;;;;;;6121352;23;20404;-56
2022/12/25 11:07:02;;;;;;;15.23;6.80;;;6.00;99.90;;;;;;6120881;23;20455;-62
2022/12/25 11:09:32;;;;;;;14.37;7.20;;;6.00;99.90;;;;;;6123848;23;20372;-60
2022/12/25 11:12:01;;;;;;;13.27;6.47;;;6.10;99.90;;;;;;6123669;23;20434;-58
2022/12/25 11:14:30;;;;;;;20.03;7.83;;;6.10;99.90;;;;;;6123221;23;20408;-56
2022/12/25 11:17:07;;;;;;;20.70;7.47;;;6.20;99.90;;;;;;6122334;23;20415;-59
2022/12/25 11:19:34;;;;;;;14.00;6.70;;;6.30;99.90;;;;;;6123209;23;20443;-58
2022/12/25 11:22:03;;;;;;;13.17;7.20;;;6.30;99.90;;;;;;6123474;23;20443;-57
2022/12/25 11:24:33;;;;;;;12.77;6.77;;;6.40;99.90;;;;;;6122936;23;20406;-56
2022/12/25 11:27:02;;;;;;;18.90;8.80;;;6.50;99.90;;;;;;6097800;23;20435;-58
2022/12/25 11:29:37;;;;;;;19.60;8.70;;;6.50;99.90;;;;;;6122657;23;20407;-56
2022/12/25 11:32:11;;;;;;;17.90;9.43;;;6.60;99.90;;;;;;6122483;23;20752;-57
2022/12/25 11:34:43;;;;;;;18.13;8.03;;;6.60;99.90;;;;;;6124200;23;20391;-58
2022/12/25 11:37:17;;;;;;;12.10;7.80;;;6.50;99.90;;;;;;6122542;23;20432;-59
2022/12/25 11:39:46;;;;;;;15.83;7.60;;;6.60;99.90;;;;;;6122163;23;20858;-56
2022/12/25 11:42:20;;;;;;;14.60;8.37;;;6.60;99.90;;;;;;6122261;23;20463;-58
2022/12/25 11:44:51;;;;;;;10.90;6.90;;;6.60;99.90;;;;;;6123270;23;20485;-60
2022/12/25 11:47:23;;;;;;;10.50;7.30;;;6.60;99.90;;;;;;6123013;23;20984;-57
2022/12/25 11:49:55;;;;;;;15.10;9.20;;;6.60;99.90;;;;;;6122206;23;20388;-60
2022/12/25 11:52:30;;;;;;;11.60;7.60;;;6.60;99.90;;;;;;6123226;23;20412;-57
2022/12/25 11:55:05;;;;;;;19.87;9.20;;;6.60;99.90;;;;;;6124049;23;20383;-60
2022/12/25 11:57:37;;;;;;;15.77;7.93;;;6.60;99.90;;;;;;6123808;23;20418;-59
2022/12/25 12:00:09;;;;;;;14.53;8.10;;;6.60;99.90;;;;;;6124072;23;20435;-61
2022/12/25 12:02:43;;;;;;;16.67;9.53;;;6.60;99.90;;;;;;6123303;23;20451;-59
2022/12/25 12:05:20;;;;;;;14.07;7.90;;;6.70;99.90;;;;;;6122782;23;20459;-54
2022/12/25 12:07:58;;;;;;;14.80;7.17;;;6.70;99.90;;;;;;6120994;23;20435;-59
2022/12/25 12:10:37;;;;;;;13.03;7.50;;;6.80;99.90;;;;;;6121786;23;20396;-62
2022/12/25 12:13:20;;;;;;;15.77;7.80;;;6.80;99.90;;;;;;6122420;23;20446;-60
2022/12/25 12:15:49;;;;;;;12.23;8.20;;;6.80;99.90;;;;;;6122665;23;20468;-59
2022/12/25 12:18:21;;;;;;;16.23;7.60;;;6.80;99.90;;;;;;6122751;23;20411;-59
2022/12/25 12:20:59;;;;;;;15.27;7.73;;;6.80;99.90;;;;;;6122167;23;20448;-58
2022/12/25 12:23:28;;;;;;;12.60;8.57;;;6.80;99.90;;;;;;6122611;23;20458;-57
2022/12/25 12:25:56;;;;;;;9.73;5.37;;;6.80;99.90;;;;;;6122217;23;20416;-53
2022/12/25 12:28:27;;;;;;;13.57;7.20;;;6.80;99.90;;;;;;6122889;23;20819;-56
2022/12/25 12:31:01;;;;;;;11.53;6.30;;;6.90;99.90;;;;;;6119133;23;20412;-58
2022/12/25 12:33:41;;;;;;;10.57;7.10;;;6.90;99.90;;;;;;6116333;23;20443;-58
2022/12/25 12:36:12;;;;;;;14.33;5.87;;;7.00;99.90;;;;;;6121158;23;20411;-56
2022/12/25 12:38:44;;;;;;;14.17;6.10;;;7.10;99.90;;;;;;6120473;23;20447;-57
2022/12/25 12:41:13;;;;;;;7.00;4.73;;;7.10;99.90;;;;;;6120654;23;20496;-58
2022/12/25 12:43:43;;;;;;;15.40;7.40;;;7.10;99.90;;;;;;6112733;23;20432;-56
2022/12/25 12:46:17;;;;;;;18.53;6.93;;;7.10;99.90;;;;;;6120281;23;20439;-56
2022/12/25 12:48:46;;;;;;;11.50;5.57;;;7.20;99.90;;;;;;6119376;23;20939;-55
2022/12/25 12:51:26;;;;;;;11.60;5.13;;;7.20;99.90;;;;;;6121301;23;20415;-59
2022/12/25 12:54:19;;;;;;;10.93;5.43;;;7.20;99.90;;;;;;6120762;23;20435;-61
2022/12/25 12:56:56;;;;;;;12.37;6.60;;;7.20;99.90;;;;;;6120206;23;20408;-60
2022/12/25 12:59:24;;;;;;;11.47;6.60;;;7.20;99.90;;;;;;6112995;23;20462;-58
2022/12/25 13:02:02;;;;;;;11.43;5.70;;;7.20;99.90;;;;;;6119824;23;20502;-58
2022/12/25 13:05:00;;;;;;;6.20;3.93;;;7.20;99.90;;;;;;6120977;23;20396;-56
2022/12/25 13:07:42;;;;;;;12.63;5.27;;;7.20;99.90;;;;;;6003831;24;20442;-62
2022/12/25 13:10:21;;;;;;;9.67;4.87;;;7.20;99.90;;;;;;6030725;23;20423;-59
2022/12/25 13:12:53;;;;;;;10.67;5.70;;;7.20;99.90;;;;;;6111452;23;20408;-59
2022/12/25 13:15:22;;;;;;;8.57;4.50;;;7.20;99.90;;;;;;6119875;23;20399;-60
2022/12/25 13:17:49;;;;;;;6.70;4.70;;;7.30;99.90;;;;;;6119071;23;20426;-54
2022/12/25 13:20:23;;;;;;;9.50;5.10;;;7.30;99.90;;;;;;6120561;23;20467;-57
2022/12/25 13:22:50;;;;;;;6.47;4.33;;;7.40;99.90;;;;;;6119906;23;20729;-56
2022/12/25 13:25:23;;;;;;;8.37;5.17;;;7.40;99.90;;;;;;6120023;23;20392;-59
2022/12/25 13:27:58;;;;;;;10.03;6.67;;;7.40;99.90;;;;;;6119785;23;20380;-59
2022/12/25 13:30:26;;;;;;;5.17;4.67;;;7.40;99.90;;;;;;6120259;23;20391;-58
2022/12/25 13:32:58;;;;;;;20.33;4.53;;;7.40;99.90;;;;;;6120220;23;20400;-59
2022/12/25 13:35:25;;;;;;;16.30;4.67;;;7.40;99.90;;;;;;6120544;23;20428;-58
2022/12/25 13:37:53;;;;;;;16.90;4.70;;;7.40;99.90;;;;;;6120996;23;20388;-58
2022/12/25 13:40:26;;;;;;;10.00;4.50;;;7.40;99.90;;;;;;6121545;23;20387;-58
2022/12/25 13:42:57;;;;;;;7.50;3.87;;;7.40;99.90;;;;;;6121542;23;20420;-59
2022/12/25 13:45:26;;;;;;;5.53;3.70;;;7.40;99.90;;;;;;6121729;23;20480;-59
2022/12/25 13:47:53;;;;;;;7.10;5.03;;;7.40;99.90;;;;;;6112934;23;20408;-57
2022/12/25 13:50:24;;;;;;;8.33;4.80;;;7.40;99.90;;;;;;6120025;23;20408;-59
2022/12/25 13:52:52;;;;;;;6.83;4.90;;;7.30;99.90;;;;;;6121079;23;20392;-58
2022/12/25 13:55:26;;;;;;;9.07;5.43;;;7.30;99.90;;;;;;6120583;23;20406;-60
2022/12/25 13:57:54;;;;;;;13.50;5.63;;;7.30;99.90;;;;;;6121742;23;20380;-57
2022/12/25 14:00:24;;;;;;;8.97;4.60;;;7.30;99.90;;;;;;6121267;23;20411;-58
2022/12/25 14:02:51;;;;;;;15.70;4.93;;;7.30;99.90;;;;;;6120942;23;20420;-60
2022/12/25 14:05:30;;;;;;;9.53;3.93;;;7.30;99.90;;;;;;6120559;23;20427;-57
2022/12/25 14:07:59;;;;;;;8.63;4.37;;;7.30;99.90;;;;;;6121662;23;20403;-61
2022/12/25 14:10:29;;;;;;;6.37;4.10;;;7.30;99.90;;;;;;6122402;23;20399;-55
2022/12/25 14:13:00;;;;;;;7.03;4.37;;;7.30;99.90;;;;;;6122933;23;20395;-62
2022/12/25 14:15:30;;;;;;;5.33;4.83;;;7.30;99.90;;;;;;6122374;23;20412;-58
2022/12/25 14:17:57;;;;;;;10.60;5.60;;;7.30;99.90;;;;;;6120656;23;20399;-58
2022/12/25 14:20:28;;;;;;;5.13;4.63;;;7.30;99.90;;;;;;6113259;23;20450;-58
2022/12/25 14:22:59;;;;;;;8.00;4.27;;;7.30;99.90;;;;;;6120824;23;20416;-59
2022/12/25 14:25:32;;;;;;;11.33;4.23;;;7.30;99.90;;;;;;6120424;23;20796;-57
2022/12/25 14:28:07;;;;;;;7.20;4.80;;;7.30;99.90;;;;;;6119957;23;20395;-58
2022/12/25 14:30:35;;;;;;;5.07;3.97;;;7.30;99.90;;;;;;6119393;23;20426;-59
2022/12/25 14:33:06;;;;;;;6.27;4.70;;;7.30;99.90;;;;;;6119145;23;20424;-57
2022/12/25 14:35:33;;;;;;;7.00;5.07;;;7.30;99.90;;;;;;6120300;23;20423;-53
2022/12/25 14:38:00;;;;;;;8.10;5.30;;;7.30;99.90;;;;;;6121196;23;20388;-57
2022/12/25 14:40:31;;;;;;;11.17;5.60;;;7.30;99.90;;;;;;6120976;23;20431;-56
2022/12/25 14:43:00;;;;;;;7.93;5.67;;;7.30;99.90;;;;;;6120756;23;20436;-56
2022/12/25 14:45:30;;;;;;;12.20;5.03;;;7.20;99.90;;;;;;6123723;23;20423;-57
2022/12/25 14:48:14;;;;;;;12.60;4.67;;;7.20;99.90;;;;;;6117932;23;20402;-56